sensor_id;sensor_type;location;lat;lon;timestamp;P1;durP1;ratioP1;P2;durP2;ratioP2
65234;SDS011;51820;48.374;10.930;2022-10-03T00:02:13;7.10;;;2.70;;
65234;SDS011;51820;48.374;10.930;2022-10-03T00:05:00;21.67;;;10.20;;
65234;SDS011;51820;48.374;10.930;2022-10-03T00:07:43;27.85;;;13.50;;
65234;SDS011;51820;48.374;10.930;2022-10-03T00:10:32;17.95;;;9.05;;
65234;SDS011;51820;48.374;10.930;2022-10-03T00:13:10;10.48;;;5.65;;
65234;SDS011;51820;48.374;10.930;2022-10-03T00:15:49;7.82;;;3.08;;
65234;SDS011;51820;48.374;10.930;2022-10-03T00:18:37;5.97;;;2.53;;
65234;SDS011;51820;48.374;10.930;2022-10-03T00:21:22;6.25;;;2.78;;
65234;SDS011;51820;48.374;10.930;2022-10-03T00:24:13;7.00;;;2.85;;
65234;SDS011;51820;48.374;10.930;2022-10-03T00:26:54;22.17;;;12.32;;
65234;SDS011;51820;48.374;10.930;2022-10-03T00:29:35;43.33;;;25.45;;
65234;SDS011;51820;48.374;10.930;2022-10-03T00:32:16;80.93;;;45.70;;
65234;SDS011;51820;48.374;10.930;2022-10-03T00:35:04;91.47;;;52.20;;
65234;SDS011;51820;48.374;10.930;2022-10-03T00:37:44;22.80;;;12.55;;
65234;SDS011;51820;48.374;10.930;2022-10-03T00:40:34;8.60;;;3.70;;
65234;SDS011;51820;48.374;10.930;2022-10-03T00:43:17;15.73;;;8.73;;
65234;SDS011;51820;48.374;10.930;2022-10-03T00:46:20;115.87;;;64.50;;
65234;SDS011;51820;48.374;10.930;2022-10-03T00:49:25;51.72;;;29.73;;
65234;SDS011;51820;48.374;10.930;2022-10-03T00:52:21;18.67;;;9.88;;
65234;SDS011;51820;48.374;10.930;2022-10-03T00:55:04;6.82;;;3.50;;
65234;SDS011;51820;48.374;10.930;2022-10-03T00:57:55;9.82;;;5.20;;
65234;SDS011;51820;48.374;10.930;2022-10-03T01:00:31;47.30;;;26.63;;
65234;SDS011;51820;48.374;10.930;2022-10-03T01:03:10;36.45;;;20.75;;
65234;SDS011;51820;48.374;10.930;2022-10-03T01:05:56;20.35;;;10.80;;
65234;SDS011;51820;48.374;10.930;2022-10-03T01:08:42;18.73;;;9.15;;
65234;SDS011;51820;48.374;10.930;2022-10-03T01:11:29;9.30;;;3.65;;
65234;SDS011;51820;48.374;10.930;2022-10-03T01:14:11;16.37;;;7.73;;
65234;SDS011;51820;48.374;10.930;2022-10-03T01:16:59;21.15;;;10.57;;
65234;SDS011;51820;48.374;10.930;2022-10-03T01:19:58;19.10;;;10.10;;
65234;SDS011;51820;48.374;10.930;2022-10-03T01:22:41;20.33;;;10.18;;
65234;SDS011;51820;48.374;10.930;2022-10-03T01:25:27;11.23;;;5.18;;
65234;SDS011;51820;48.374;10.930;2022-10-03T01:28:12;7.60;;;3.30;;
65234;SDS011;51820;48.374;10.930;2022-10-03T01:31:07;7.85;;;3.63;;
65234;SDS011;51820;48.374;10.930;2022-10-03T01:33:42;8.02;;;3.17;;
65234;SDS011;51820;48.374;10.930;2022-10-03T01:36:16;7.00;;;3.42;;
65234;SDS011;51820;48.374;10.930;2022-10-03T01:38:53;7.15;;;3.40;;
65234;SDS011;51820;48.374;10.930;2022-10-03T01:41:26;7.87;;;3.13;;
65234;SDS011;51820;48.374;10.930;2022-10-03T01:44:11;7.93;;;3.42;;
65234;SDS011;51820;48.374;10.930;2022-10-03T01:46:51;7.32;;;3.72;;
65234;SDS011;51820;48.374;10.930;2022-10-03T01:49:26;9.02;;;3.67;;
65234;SDS011;51820;48.374;10.930;2022-10-03T01:52:14;7.80;;;3.47;;
65234;SDS011;51820;48.374;10.930;2022-10-03T01:54:55;9.57;;;3.50;;
65234;SDS011;51820;48.374;10.930;2022-10-03T01:57:41;10.13;;;3.58;;
65234;SDS011;51820;48.374;10.930;2022-10-03T02:00:19;9.45;;;3.70;;
65234;SDS011;51820;48.374;10.930;2022-10-03T02:03:07;7.13;;;3.40;;
65234;SDS011;51820;48.374;10.930;2022-10-03T02:05:52;8.32;;;3.47;;
65234;SDS011;51820;48.374;10.930;2022-10-03T02:08:34;8.73;;;3.13;;
65234;SDS011;51820;48.374;10.930;2022-10-03T02:11:26;7.25;;;3.45;;
65234;SDS011;51820;48.374;10.930;2022-10-03T02:14:14;10.32;;;3.28;;
65234;SDS011;51820;48.374;10.930;2022-10-03T02:17:04;8.38;;;3.40;;
65234;SDS011;51820;48.374;10.930;2022-10-03T02:19:48;7.93;;;3.35;;
65234;SDS011;51820;48.374;10.930;2022-10-03T02:23:14;7.27;;;2.90;;
65234;SDS011;51820;48.374;10.930;2022-10-03T02:35:44;7.32;;;3.50;;
65234;SDS011;51820;48.374;10.930;2022-10-03T02:41:23;8.57;;;3.38;;
65234;SDS011;51820;48.374;10.930;2022-10-03T02:44:19;9.07;;;4.03;;
65234;SDS011;51820;48.374;10.930;2022-10-03T02:47:23;9.00;;;3.70;;
65234;SDS011;51820;48.374;10.930;2022-10-03T02:50:53;8.95;;;3.50;;
65234;SDS011;51820;48.374;10.930;2022-10-03T02:57:12;8.07;;;3.38;;
65234;SDS011;51820;48.374;10.930;2022-10-03T03:00:04;8.82;;;3.55;;
65234;SDS011;51820;48.374;10.930;2022-10-03T03:09:08;8.33;;;3.90;;
65234;SDS011;51820;48.374;10.930;2022-10-03T03:12:20;9.65;;;3.97;;
65234;SDS011;51820;48.374;10.930;2022-10-03T03:15:28;8.25;;;3.85;;
65234;SDS011;51820;48.374;10.930;2022-10-03T03:18:32;7.85;;;3.58;;
65234;SDS011;51820;48.374;10.930;2022-10-03T03:21:16;9.15;;;3.88;;
65234;SDS011;51820;48.374;10.930;2022-10-03T03:27:03;9.20;;;4.10;;
65234;SDS011;51820;48.374;10.930;2022-10-03T03:29:54;8.30;;;3.88;;
65234;SDS011;51820;48.374;10.930;2022-10-03T03:32:31;9.40;;;3.60;;
65234;SDS011;51820;48.374;10.930;2022-10-03T03:35:14;7.65;;;3.90;;
65234;SDS011;51820;48.374;10.930;2022-10-03T03:37:56;7.33;;;3.37;;
65234;SDS011;51820;48.374;10.930;2022-10-03T03:40:50;8.85;;;4.18;;
65234;SDS011;51820;48.374;10.930;2022-10-03T03:43:32;9.90;;;4.30;;
65234;SDS011;51820;48.374;10.930;2022-10-03T03:46:15;14.18;;;4.85;;
65234;SDS011;51820;48.374;10.930;2022-10-03T03:48:58;8.32;;;4.13;;
65234;SDS011;51820;48.374;10.930;2022-10-03T03:51:40;10.13;;;4.00;;
65234;SDS011;51820;48.374;10.930;2022-10-03T03:54:27;13.30;;;4.22;;
65234;SDS011;51820;48.374;10.930;2022-10-03T04:00:18;7.93;;;3.83;;
65234;SDS011;51820;48.374;10.930;2022-10-03T04:02:59;8.25;;;3.65;;
65234;SDS011;51820;48.374;10.930;2022-10-03T04:05:43;8.93;;;3.90;;
65234;SDS011;51820;48.374;10.930;2022-10-03T04:08:32;8.02;;;4.13;;
65234;SDS011;51820;48.374;10.930;2022-10-03T04:11:27;8.38;;;4.18;;
65234;SDS011;51820;48.374;10.930;2022-10-03T04:14:25;8.93;;;4.30;;
65234;SDS011;51820;48.374;10.930;2022-10-03T04:17:15;9.05;;;4.70;;
65234;SDS011;51820;48.374;10.930;2022-10-03T04:20:12;9.13;;;4.30;;
65234;SDS011;51820;48.374;10.930;2022-10-03T04:22:51;9.20;;;4.13;;
65234;SDS011;51820;48.374;10.930;2022-10-03T04:25:45;7.90;;;3.92;;
65234;SDS011;51820;48.374;10.930;2022-10-03T04:28:24;9.98;;;4.20;;
65234;SDS011;51820;48.374;10.930;2022-10-03T04:31:08;9.68;;;4.72;;
65234;SDS011;51820;48.374;10.930;2022-10-03T04:34:05;11.77;;;4.67;;
65234;SDS011;51820;48.374;10.930;2022-10-03T04:36:48;11.35;;;4.57;;
65234;SDS011;51820;48.374;10.930;2022-10-03T04:39:34;11.15;;;4.43;;
65234;SDS011;51820;48.374;10.930;2022-10-03T04:42:12;9.63;;;4.13;;
65234;SDS011;51820;48.374;10.930;2022-10-03T04:44:57;10.80;;;4.47;;
65234;SDS011;51820;48.374;10.930;2022-10-03T04:47:49;9.73;;;4.47;;
65234;SDS011;51820;48.374;10.930;2022-10-03T04:50:24;8.48;;;4.38;;
65234;SDS011;51820;48.374;10.930;2022-10-03T04:53:07;10.00;;;4.40;;
65234;SDS011;51820;48.374;10.930;2022-10-03T04:55:45;8.82;;;4.10;;
65234;SDS011;51820;48.374;10.930;2022-10-03T04:58:21;9.82;;;4.28;;
65234;SDS011;51820;48.374;10.930;2022-10-03T05:00:58;10.80;;;4.70;;
65234;SDS011;51820;48.374;10.930;2022-10-03T05:03:39;10.75;;;4.93;;
65234;SDS011;51820;48.374;10.930;2022-10-03T05:06:22;12.02;;;4.38;;
65234;SDS011;51820;48.374;10.930;2022-10-03T05:09:00;10.98;;;4.30;;
65234;SDS011;51820;48.374;10.930;2022-10-03T05:11:46;7.95;;;4.13;;
65234;SDS011;51820;48.374;10.930;2022-10-03T05:14:22;8.67;;;4.53;;
65234;SDS011;51820;48.374;10.930;2022-10-03T05:16:59;9.25;;;4.40;;
65234;SDS011;51820;48.374;10.930;2022-10-03T05:19:38;8.85;;;4.20;;
65234;SDS011;51820;48.374;10.930;2022-10-03T05:22:21;26.80;;;5.10;;
65234;SDS011;51820;48.374;10.930;2022-10-03T05:25:00;13.27;;;4.57;;
65234;SDS011;51820;48.374;10.930;2022-10-03T05:27:40;11.13;;;4.30;;
65234;SDS011;51820;48.374;10.930;2022-10-03T05:30:18;14.73;;;3.60;;
65234;SDS011;51820;48.374;10.930;2022-10-03T05:32:53;21.23;;;4.50;;
65234;SDS011;51820;48.374;10.930;2022-10-03T05:35:41;20.08;;;3.95;;
65234;SDS011;51820;48.374;10.930;2022-10-03T05:38:27;10.35;;;4.20;;
65234;SDS011;51820;48.374;10.930;2022-10-03T05:41:24;11.87;;;4.17;;
65234;SDS011;51820;48.374;10.930;2022-10-03T05:43:57;21.77;;;4.05;;
65234;SDS011;51820;48.374;10.930;2022-10-03T05:52:33;8.70;;;3.72;;
65234;SDS011;51820;48.374;10.930;2022-10-03T05:55:22;14.50;;;4.30;;
65234;SDS011;51820;48.374;10.930;2022-10-03T06:00:58;15.77;;;4.22;;
65234;SDS011;51820;48.374;10.930;2022-10-03T06:04:09;16.83;;;4.15;;
65234;SDS011;51820;48.374;10.930;2022-10-03T06:06:55;11.15;;;4.43;;
65234;SDS011;51820;48.374;10.930;2022-10-03T06:09:42;13.47;;;4.03;;
65234;SDS011;51820;48.374;10.930;2022-10-03T06:12:41;19.08;;;4.45;;
65234;SDS011;51820;48.374;10.930;2022-10-03T06:18:44;16.58;;;4.32;;
65234;SDS011;51820;48.374;10.930;2022-10-03T06:21:31;8.43;;;3.95;;
65234;SDS011;51820;48.374;10.930;2022-10-03T06:24:31;12.17;;;4.60;;
65234;SDS011;51820;48.374;10.930;2022-10-03T06:27:48;9.48;;;3.88;;
65234;SDS011;51820;48.374;10.930;2022-10-03T06:30:52;10.98;;;4.40;;
65234;SDS011;51820;48.374;10.930;2022-10-03T06:33:51;9.05;;;4.20;;
65234;SDS011;51820;48.374;10.930;2022-10-03T06:43:09;10.88;;;4.60;;
65234;SDS011;51820;48.374;10.930;2022-10-03T06:46:10;10.25;;;4.93;;
65234;SDS011;51820;48.374;10.930;2022-10-03T06:52:02;10.90;;;5.32;;
65234;SDS011;51820;48.374;10.930;2022-10-03T06:58:06;13.23;;;4.82;;
65234;SDS011;51820;48.374;10.930;2022-10-03T07:01:23;12.93;;;5.50;;
65234;SDS011;51820;48.374;10.930;2022-10-03T07:04:37;10.98;;;5.45;;
65234;SDS011;51820;48.374;10.930;2022-10-03T07:07:29;10.75;;;5.10;;
65234;SDS011;51820;48.374;10.930;2022-10-03T07:10:37;12.43;;;5.20;;
65234;SDS011;51820;48.374;10.930;2022-10-03T07:16:32;12.93;;;5.30;;
65234;SDS011;51820;48.374;10.930;2022-10-03T07:19:27;11.05;;;5.57;;
65234;SDS011;51820;48.374;10.930;2022-10-03T07:25:38;12.97;;;5.97;;
65234;SDS011;51820;48.374;10.930;2022-10-03T07:31:39;12.13;;;5.30;;
65234;SDS011;51820;48.374;10.930;2022-10-03T07:34:37;12.10;;;5.13;;
65234;SDS011;51820;48.374;10.930;2022-10-03T07:37:35;11.98;;;5.43;;
65234;SDS011;51820;48.374;10.930;2022-10-03T07:40:58;11.63;;;5.23;;
65234;SDS011;51820;48.374;10.930;2022-10-03T07:43:45;12.38;;;5.32;;
65234;SDS011;51820;48.374;10.930;2022-10-03T07:46:32;12.93;;;5.22;;
65234;SDS011;51820;48.374;10.930;2022-10-03T07:49:26;10.65;;;4.50;;
65234;SDS011;51820;48.374;10.930;2022-10-03T07:52:28;16.38;;;7.18;;
65234;SDS011;51820;48.374;10.930;2022-10-03T07:58:24;11.55;;;5.13;;
65234;SDS011;51820;48.374;10.930;2022-10-03T08:01:05;14.98;;;5.57;;
65234;SDS011;51820;48.374;10.930;2022-10-03T08:03:54;14.90;;;5.60;;
65234;SDS011;51820;48.374;10.930;2022-10-03T08:06:54;12.23;;;5.70;;
65234;SDS011;51820;48.374;10.930;2022-10-03T08:12:41;15.68;;;5.97;;
65234;SDS011;51820;48.374;10.930;2022-10-03T08:15:26;12.90;;;6.68;;
65234;SDS011;51820;48.374;10.930;2022-10-03T08:18:22;13.73;;;6.80;;
65234;SDS011;51820;48.374;10.930;2022-10-03T08:21:16;14.23;;;6.10;;
65234;SDS011;51820;48.374;10.930;2022-10-03T08:24:04;14.57;;;5.90;;
65234;SDS011;51820;48.374;10.930;2022-10-03T08:26:51;11.30;;;5.95;;
65234;SDS011;51820;48.374;10.930;2022-10-03T08:29:40;13.65;;;5.70;;
65234;SDS011;51820;48.374;10.930;2022-10-03T08:33:03;13.45;;;6.03;;
65234;SDS011;51820;48.374;10.930;2022-10-03T08:39:13;11.03;;;5.23;;
65234;SDS011;51820;48.374;10.930;2022-10-03T08:42:07;10.68;;;5.05;;
65234;SDS011;51820;48.374;10.930;2022-10-03T08:51:47;10.80;;;5.57;;
65234;SDS011;51820;48.374;10.930;2022-10-03T08:57:42;12.43;;;5.90;;
65234;SDS011;51820;48.374;10.930;2022-10-03T09:00:38;12.65;;;5.65;;
65234;SDS011;51820;48.374;10.930;2022-10-03T09:06:45;13.48;;;5.60;;
65234;SDS011;51820;48.374;10.930;2022-10-03T09:12:50;14.32;;;5.50;;
65234;SDS011;51820;48.374;10.930;2022-10-03T09:18:58;15.05;;;5.43;;
65234;SDS011;51820;48.374;10.930;2022-10-03T09:21:51;10.25;;;5.82;;
65234;SDS011;51820;48.374;10.930;2022-10-03T09:24:58;11.83;;;5.57;;
65234;SDS011;51820;48.374;10.930;2022-10-03T09:30:54;11.43;;;4.95;;
65234;SDS011;51820;48.374;10.930;2022-10-03T09:33:46;12.52;;;5.72;;
65234;SDS011;51820;48.374;10.930;2022-10-03T09:42:45;28.75;;;9.93;;
65234;SDS011;51820;48.374;10.930;2022-10-03T09:45:54;12.15;;;5.82;;
65234;SDS011;51820;48.374;10.930;2022-10-03T09:48:41;11.15;;;5.00;;
65234;SDS011;51820;48.374;10.930;2022-10-03T09:51:33;12.30;;;5.80;;
65234;SDS011;51820;48.374;10.930;2022-10-03T09:54:34;11.30;;;5.10;;
65234;SDS011;51820;48.374;10.930;2022-10-03T10:00:48;9.95;;;4.90;;
65234;SDS011;51820;48.374;10.930;2022-10-03T10:10:45;12.97;;;4.40;;
65234;SDS011;51820;48.374;10.930;2022-10-03T10:14:10;13.07;;;4.53;;
65234;SDS011;51820;48.374;10.930;2022-10-03T10:17:13;11.38;;;4.43;;
65234;SDS011;51820;48.374;10.930;2022-10-03T10:20:26;10.38;;;5.45;;
65234;SDS011;51820;48.374;10.930;2022-10-03T10:23:09;9.20;;;4.30;;
65234;SDS011;51820;48.374;10.930;2022-10-03T10:36:06;10.25;;;3.20;;
65234;SDS011;51820;48.374;10.930;2022-10-03T10:42:11;11.13;;;3.07;;
65234;SDS011;51820;48.374;10.930;2022-10-03T11:00:46;11.30;;;2.97;;
65234;SDS011;51820;48.374;10.930;2022-10-03T11:03:56;7.55;;;2.95;;
65234;SDS011;51820;48.374;10.930;2022-10-03T11:07:39;12.75;;;3.70;;
65234;SDS011;51820;48.374;10.930;2022-10-03T11:10:57;9.75;;;3.30;;
65234;SDS011;51820;48.374;10.930;2022-10-03T11:13:50;6.80;;;3.07;;
65234;SDS011;51820;48.374;10.930;2022-10-03T11:20:27;8.80;;;3.20;;
65234;SDS011;51820;48.374;10.930;2022-10-03T11:26:53;7.80;;;3.00;;
65234;SDS011;51820;48.374;10.930;2022-10-03T11:39:20;8.60;;;2.92;;
65234;SDS011;51820;48.374;10.930;2022-10-03T11:41:58;10.07;;;3.35;;
65234;SDS011;51820;48.374;10.930;2022-10-03T11:44:31;10.60;;;3.10;;
65234;SDS011;51820;48.374;10.930;2022-10-03T11:47:13;7.85;;;3.15;;
65234;SDS011;51820;48.374;10.930;2022-10-03T11:50:20;10.73;;;3.10;;
65234;SDS011;51820;48.374;10.930;2022-10-03T11:56:17;14.15;;;4.00;;
65234;SDS011;51820;48.374;10.930;2022-10-03T12:02:00;11.23;;;4.03;;
65234;SDS011;51820;48.374;10.930;2022-10-03T12:04:43;12.23;;;3.15;;
65234;SDS011;51820;48.374;10.930;2022-10-03T12:07:24;9.50;;;3.33;;
65234;SDS011;51820;48.374;10.930;2022-10-03T12:10:29;12.27;;;3.20;;
65234;SDS011;51820;48.374;10.930;2022-10-03T12:13:07;9.30;;;3.23;;
65234;SDS011;51820;48.374;10.930;2022-10-03T12:15:44;10.45;;;3.50;;
65234;SDS011;51820;48.374;10.930;2022-10-03T12:18:15;9.55;;;3.45;;
65234;SDS011;51820;48.374;10.930;2022-10-03T12:21:05;9.85;;;3.35;;
65234;SDS011;51820;48.374;10.930;2022-10-03T12:23:47;9.48;;;3.42;;
65234;SDS011;51820;48.374;10.930;2022-10-03T12:26:41;9.83;;;3.13;;
65234;SDS011;51820;48.374;10.930;2022-10-03T12:29:15;9.75;;;2.70;;
65234;SDS011;51820;48.374;10.930;2022-10-03T12:31:49;10.73;;;2.90;;
65234;SDS011;51820;48.374;10.930;2022-10-03T12:34:38;13.38;;;3.17;;
65234;SDS011;51820;48.374;10.930;2022-10-03T12:37:29;12.25;;;3.47;;
65234;SDS011;51820;48.374;10.930;2022-10-03T12:40:07;12.27;;;2.30;;
65234;SDS011;51820;48.374;10.930;2022-10-03T12:42:44;7.50;;;2.17;;
65234;SDS011;51820;48.374;10.930;2022-10-03T12:45:22;7.80;;;2.25;;
65234;SDS011;51820;48.374;10.930;2022-10-03T12:47:59;12.38;;;2.83;;
65234;SDS011;51820;48.374;10.930;2022-10-03T12:50:40;8.32;;;2.63;;
65234;SDS011;51820;48.374;10.930;2022-10-03T12:53:19;11.43;;;3.00;;
65234;SDS011;51820;48.374;10.930;2022-10-03T12:56:05;10.77;;;2.55;;
65234;SDS011;51820;48.374;10.930;2022-10-03T12:58:52;9.52;;;2.60;;
65234;SDS011;51820;48.374;10.930;2022-10-03T13:01:34;8.13;;;2.53;;
65234;SDS011;51820;48.374;10.930;2022-10-03T13:04:20;6.90;;;2.10;;
65234;SDS011;51820;48.374;10.930;2022-10-03T13:07:00;10.43;;;2.40;;
65234;SDS011;51820;48.374;10.930;2022-10-03T13:09:49;8.50;;;2.05;;
65234;SDS011;51820;48.374;10.930;2022-10-03T13:12:33;11.27;;;2.78;;
65234;SDS011;51820;48.374;10.930;2022-10-03T13:18:08;9.68;;;2.47;;
65234;SDS011;51820;48.374;10.930;2022-10-03T13:20:49;7.80;;;1.87;;
65234;SDS011;51820;48.374;10.930;2022-10-03T13:23:30;8.98;;;1.90;;
65234;SDS011;51820;48.374;10.930;2022-10-03T13:26:09;9.15;;;1.90;;
65234;SDS011;51820;48.374;10.930;2022-10-03T13:28:49;8.77;;;2.13;;
65234;SDS011;51820;48.374;10.930;2022-10-03T13:31:41;7.25;;;1.90;;
65234;SDS011;51820;48.374;10.930;2022-10-03T13:34:44;7.87;;;1.70;;
65234;SDS011;51820;48.374;10.930;2022-10-03T13:37:27;8.63;;;1.88;;
65234;SDS011;51820;48.374;10.930;2022-10-03T13:40:01;6.38;;;1.80;;
65234;SDS011;51820;48.374;10.930;2022-10-03T13:42:36;8.18;;;1.88;;
65234;SDS011;51820;48.374;10.930;2022-10-03T13:45:10;7.55;;;1.80;;
65234;SDS011;51820;48.374;10.930;2022-10-03T13:47:43;9.57;;;1.70;;
65234;SDS011;51820;48.374;10.930;2022-10-03T13:50:16;7.22;;;1.90;;
65234;SDS011;51820;48.374;10.930;2022-10-03T13:52:51;8.68;;;1.83;;
65234;SDS011;51820;48.374;10.930;2022-10-03T13:55:29;7.65;;;1.80;;
65234;SDS011;51820;48.374;10.930;2022-10-03T13:58:12;7.20;;;1.73;;
65234;SDS011;51820;48.374;10.930;2022-10-03T14:04:15;8.55;;;1.83;;
65234;SDS011;51820;48.374;10.930;2022-10-03T14:07:09;5.30;;;1.60;;
65234;SDS011;51820;48.374;10.930;2022-10-03T14:12:51;7.85;;;1.75;;
65234;SDS011;51820;48.374;10.930;2022-10-03T14:15:39;11.10;;;1.73;;
65234;SDS011;51820;48.374;10.930;2022-10-03T14:18:19;8.57;;;1.60;;
65234;SDS011;51820;48.374;10.930;2022-10-03T14:24:02;8.48;;;2.05;;
65234;SDS011;51820;48.374;10.930;2022-10-03T14:26:38;7.10;;;1.80;;
65234;SDS011;51820;48.374;10.930;2022-10-03T14:29:16;7.13;;;2.20;;
65234;SDS011;51820;48.374;10.930;2022-10-03T14:31:52;7.55;;;2.03;;
65234;SDS011;51820;48.374;10.930;2022-10-03T14:34:31;7.15;;;2.03;;
65234;SDS011;51820;48.374;10.930;2022-10-03T14:37:09;8.45;;;1.88;;
65234;SDS011;51820;48.374;10.930;2022-10-03T14:39:50;8.73;;;1.92;;
65234;SDS011;51820;48.374;10.930;2022-10-03T14:42:34;6.77;;;1.77;;
65234;SDS011;51820;48.374;10.930;2022-10-03T14:45:12;7.07;;;2.15;;
65234;SDS011;51820;48.374;10.930;2022-10-03T14:47:46;8.75;;;1.60;;
65234;SDS011;51820;48.374;10.930;2022-10-03T14:50:17;8.10;;;1.83;;
65234;SDS011;51820;48.374;10.930;2022-10-03T14:52:49;6.45;;;1.50;;
65234;SDS011;51820;48.374;10.930;2022-10-03T14:55:29;6.10;;;1.53;;
65234;SDS011;51820;48.374;10.930;2022-10-03T14:58:01;9.90;;;1.70;;
65234;SDS011;51820;48.374;10.930;2022-10-03T15:00:38;7.07;;;1.58;;
65234;SDS011;51820;48.374;10.930;2022-10-03T15:03:27;8.77;;;1.60;;
65234;SDS011;51820;48.374;10.930;2022-10-03T15:06:00;7.93;;;1.65;;
65234;SDS011;51820;48.374;10.930;2022-10-03T15:08:47;9.20;;;1.90;;
65234;SDS011;51820;48.374;10.930;2022-10-03T15:11:21;10.90;;;1.92;;
65234;SDS011;51820;48.374;10.930;2022-10-03T15:16:43;7.55;;;1.75;;
65234;SDS011;51820;48.374;10.930;2022-10-03T15:19:13;6.05;;;1.55;;
65234;SDS011;51820;48.374;10.930;2022-10-03T15:21:45;8.03;;;1.77;;
65234;SDS011;51820;48.374;10.930;2022-10-03T15:24:21;8.18;;;2.10;;
65234;SDS011;51820;48.374;10.930;2022-10-03T15:26:53;7.57;;;1.95;;
65234;SDS011;51820;48.374;10.930;2022-10-03T15:29:28;6.88;;;1.63;;
65234;SDS011;51820;48.374;10.930;2022-10-03T15:31:59;7.20;;;1.67;;
65234;SDS011;51820;48.374;10.930;2022-10-03T15:34:31;9.67;;;2.10;;
65234;SDS011;51820;48.374;10.930;2022-10-03T15:37:05;9.25;;;2.33;;
65234;SDS011;51820;48.374;10.930;2022-10-03T15:39:40;6.57;;;1.88;;
65234;SDS011;51820;48.374;10.930;2022-10-03T15:42:20;7.47;;;1.98;;
65234;SDS011;51820;48.374;10.930;2022-10-03T15:44:52;9.48;;;2.20;;
65234;SDS011;51820;48.374;10.930;2022-10-03T15:47:23;8.53;;;2.10;;
65234;SDS011;51820;48.374;10.930;2022-10-03T15:49:54;9.40;;;2.50;;
65234;SDS011;51820;48.374;10.930;2022-10-03T15:52:32;8.43;;;2.00;;
65234;SDS011;51820;48.374;10.930;2022-10-03T15:55:10;10.98;;;1.90;;
65234;SDS011;51820;48.374;10.930;2022-10-03T15:57:44;8.70;;;1.92;;
65234;SDS011;51820;48.374;10.930;2022-10-03T16:00:22;8.13;;;1.90;;
65234;SDS011;51820;48.374;10.930;2022-10-03T16:03:06;7.25;;;1.95;;
65234;SDS011;51820;48.374;10.930;2022-10-03T16:05:42;6.18;;;1.80;;
65234;SDS011;51820;48.374;10.930;2022-10-03T16:08:21;7.63;;;2.00;;
65234;SDS011;51820;48.374;10.930;2022-10-03T16:10:59;7.13;;;2.00;;
65234;SDS011;51820;48.374;10.930;2022-10-03T16:13:34;7.47;;;1.87;;
65234;SDS011;51820;48.374;10.930;2022-10-03T16:19:01;7.05;;;1.80;;
65234;SDS011;51820;48.374;10.930;2022-10-03T16:21:45;7.38;;;1.52;;
65234;SDS011;51820;48.374;10.930;2022-10-03T16:24:19;10.88;;;1.80;;
65234;SDS011;51820;48.374;10.930;2022-10-03T16:26:55;6.17;;;1.80;;
65234;SDS011;51820;48.374;10.930;2022-10-03T16:29:32;9.30;;;1.80;;
65234;SDS011;51820;48.374;10.930;2022-10-03T16:32:04;8.40;;;1.95;;
65234;SDS011;51820;48.374;10.930;2022-10-03T16:34:35;7.32;;;2.42;;
65234;SDS011;51820;48.374;10.930;2022-10-03T16:37:14;6.80;;;2.20;;
65234;SDS011;51820;48.374;10.930;2022-10-03T16:39:51;6.87;;;2.13;;
65234;SDS011;51820;48.374;10.930;2022-10-03T16:42:22;6.97;;;2.20;;
65234;SDS011;51820;48.374;10.930;2022-10-03T16:44:54;7.90;;;2.45;;
65234;SDS011;51820;48.374;10.930;2022-10-03T16:47:30;5.97;;;2.22;;
65234;SDS011;51820;48.374;10.930;2022-10-03T16:50:02;7.50;;;2.60;;
65234;SDS011;51820;48.374;10.930;2022-10-03T16:52:51;10.37;;;2.57;;
65234;SDS011;51820;48.374;10.930;2022-10-03T16:55:24;6.30;;;2.45;;
65234;SDS011;51820;48.374;10.930;2022-10-03T16:57:58;7.82;;;2.90;;
65234;SDS011;51820;48.374;10.930;2022-10-03T17:00:40;9.02;;;2.83;;
65234;SDS011;51820;48.374;10.930;2022-10-03T17:03:39;8.93;;;3.33;;
65234;SDS011;51820;48.374;10.930;2022-10-03T17:06:13;12.20;;;3.20;;
65234;SDS011;51820;48.374;10.930;2022-10-03T17:08:47;11.05;;;3.78;;
65234;SDS011;51820;48.374;10.930;2022-10-03T17:11:19;9.43;;;3.90;;
65234;SDS011;51820;48.374;10.930;2022-10-03T17:13:52;10.52;;;3.65;;
65234;SDS011;51820;48.374;10.930;2022-10-03T17:16:24;11.23;;;3.58;;
65234;SDS011;51820;48.374;10.930;2022-10-03T17:19:05;8.57;;;3.50;;
65234;SDS011;51820;48.374;10.930;2022-10-03T17:21:41;9.88;;;3.70;;
65234;SDS011;51820;48.374;10.930;2022-10-03T17:24:19;11.48;;;4.30;;
65234;SDS011;51820;48.374;10.930;2022-10-03T17:26:54;13.63;;;4.00;;
65234;SDS011;51820;48.374;10.930;2022-10-03T17:29:25;13.07;;;4.30;;
65234;SDS011;51820;48.374;10.930;2022-10-03T17:31:59;11.53;;;4.63;;
65234;SDS011;51820;48.374;10.930;2022-10-03T17:34:40;11.10;;;4.65;;
65234;SDS011;51820;48.374;10.930;2022-10-03T17:41:30;11.88;;;3.70;;
65234;SDS011;51820;48.374;10.930;2022-10-03T17:44:13;9.75;;;3.40;;
65234;SDS011;51820;48.374;10.930;2022-10-03T17:46:49;12.57;;;3.93;;
65234;SDS011;51820;48.374;10.930;2022-10-03T17:49:28;8.48;;;3.55;;
65234;SDS011;51820;48.374;10.930;2022-10-03T17:52:13;8.88;;;3.78;;
65234;SDS011;51820;48.374;10.930;2022-10-03T17:54:46;12.70;;;4.00;;
65234;SDS011;51820;48.374;10.930;2022-10-03T17:57:20;13.35;;;4.20;;
65234;SDS011;51820;48.374;10.930;2022-10-03T17:59:53;10.53;;;3.93;;
65234;SDS011;51820;48.374;10.930;2022-10-03T18:02:29;10.68;;;4.15;;
65234;SDS011;51820;48.374;10.930;2022-10-03T18:05:11;7.95;;;3.92;;
65234;SDS011;51820;48.374;10.930;2022-10-03T18:07:43;11.60;;;4.30;;
65234;SDS011;51820;48.374;10.930;2022-10-03T18:10:19;11.23;;;3.80;;
65234;SDS011;51820;48.374;10.930;2022-10-03T18:12:50;10.57;;;3.60;;
65234;SDS011;51820;48.374;10.930;2022-10-03T18:18:44;10.80;;;4.07;;
65234;SDS011;51820;48.374;10.930;2022-10-03T18:21:26;9.43;;;4.28;;
65234;SDS011;51820;48.374;10.930;2022-10-03T18:24:09;10.82;;;4.63;;
65234;SDS011;51820;48.374;10.930;2022-10-03T18:26:46;10.70;;;4.37;;
65234;SDS011;51820;48.374;10.930;2022-10-03T18:29:21;11.70;;;4.63;;
65234;SDS011;51820;48.374;10.930;2022-10-03T18:31:57;10.80;;;4.63;;
65234;SDS011;51820;48.374;10.930;2022-10-03T18:34:32;11.63;;;4.75;;
65234;SDS011;51820;48.374;10.930;2022-10-03T18:37:14;9.77;;;4.00;;
65234;SDS011;51820;48.374;10.930;2022-10-03T18:40:04;12.63;;;4.10;;
65234;SDS011;51820;48.374;10.930;2022-10-03T18:42:43;11.93;;;3.90;;
65234;SDS011;51820;48.374;10.930;2022-10-03T18:45:16;9.98;;;3.80;;
65234;SDS011;51820;48.374;10.930;2022-10-03T18:47:49;8.82;;;3.35;;
65234;SDS011;51820;48.374;10.930;2022-10-03T18:50:26;8.52;;;3.47;;
65234;SDS011;51820;48.374;10.930;2022-10-03T18:53:00;9.93;;;3.20;;
65234;SDS011;51820;48.374;10.930;2022-10-03T18:55:36;9.88;;;3.42;;
65234;SDS011;51820;48.374;10.930;2022-10-03T18:58:13;11.25;;;3.95;;
65234;SDS011;51820;48.374;10.930;2022-10-03T19:00:46;10.60;;;4.13;;
65234;SDS011;51820;48.374;10.930;2022-10-03T19:03:21;14.55;;;4.18;;
65234;SDS011;51820;48.374;10.930;2022-10-03T19:05:58;15.00;;;5.27;;
65234;SDS011;51820;48.374;10.930;2022-10-03T19:08:36;10.93;;;4.53;;
65234;SDS011;51820;48.374;10.930;2022-10-03T19:11:10;11.30;;;4.38;;
65234;SDS011;51820;48.374;10.930;2022-10-03T19:13:49;14.40;;;4.80;;
65234;SDS011;51820;48.374;10.930;2022-10-03T19:16:31;9.68;;;3.95;;
65234;SDS011;51820;48.374;10.930;2022-10-03T19:19:10;13.07;;;4.90;;
65234;SDS011;51820;48.374;10.930;2022-10-03T19:21:43;15.00;;;4.97;;